Time;durP1;ratioP1;P1;durP2;ratioP2;P2;SDS_P1;SDS_P2;PMS_P1;PMS_P2;Temp;Humidity;BMP_temperature;BMP_pressure;BME280_temperature;BME280_humidity;BME280_pressure;Samples;Min_cycle;Max_cycle;Signal;HPM_P1;HPM_P2
2021/11/15 00:00:31;;;;;;;92.90;32.90;;;;;;;3.15;100.00;102076.31;5089246;28;20654;-84
2021/11/15 00:02:59;;;;;;;92.10;32.33;;;;;;;3.18;100.00;102079.00;5084213;28;20759;-85
2021/11/15 00:05:27;;;;;;;100.70;39.30;;;;;;;3.18;100.00;102071.25;5091428;28;20201;-84
2021/11/15 00:07:53;;;;;;;97.03;34.00;;;;;;;3.18;100.00;102078.09;5086596;28;20220;-84
2021/11/15 00:10:20;;;;;;;104.23;38.40;;;;;;;3.17;100.00;102078.94;5088020;28;20296;-84
2021/11/15 00:12:51;;;;;;;100.07;36.77;;;;;;;3.20;100.00;102081.56;5087334;28;20320;-86
2021/11/15 00:15:18;;;;;;;88.30;33.70;;;;;;;3.21;100.00;102079.03;5088500;28;20460;-86
2021/11/15 00:17:45;;;;;;;101.03;34.47;;;;;;;3.21;100.00;102078.19;5089116;28;20228;-84
2021/11/15 00:20:13;;;;;;;104.17;34.80;;;;;;;3.20;100.00;102084.16;5086800;28;20455;-85
2021/11/15 00:22:41;;;;;;;103.60;34.67;;;;;;;3.23;100.00;102071.38;5087577;28;20549;-85
2021/11/15 00:25:08;;;;;;;93.90;33.97;;;;;;;3.23;100.00;102077.38;5087927;28;20293;-85
2021/11/15 00:27:35;;;;;;;92.77;33.33;;;;;;;3.25;100.00;102085.16;5086583;28;20218;-83
2021/11/15 00:30:01;;;;;;;97.90;35.90;;;;;;;3.23;100.00;102079.09;5085586;28;20205;-85
2021/11/15 00:32:29;;;;;;;96.40;34.63;;;;;;;3.24;100.00;102086.00;5088129;28;20666;-84
2021/11/15 00:34:55;;;;;;;93.93;33.67;;;;;;;3.23;100.00;102082.53;5086500;28;20266;-84
2021/11/15 00:37:22;;;;;;;100.30;33.97;;;;;;;3.23;100.00;102085.13;5090565;28;20231;-84
2021/11/15 00:39:50;;;;;;;102.10;34.83;;;;;;;3.27;100.00;102080.91;5086237;28;20292;-85
2021/11/15 00:42:17;;;;;;;97.30;36.30;;;;;;;3.25;100.00;102081.72;5089643;28;20221;-85
2021/11/15 00:44:44;;;;;;;95.93;34.10;;;;;;;3.27;100.00;102080.91;5084814;28;20308;-86
2021/11/15 00:47:10;;;;;;;105.27;35.13;;;;;;;3.25;100.00;102076.56;5090401;28;20213;-85
2021/11/15 00:49:37;;;;;;;100.07;35.27;;;;;;;3.25;100.00;102077.44;5083993;28;20225;-87
2021/11/15 00:52:04;;;;;;;95.37;36.37;;;;;;;3.26;100.00;102076.59;5090546;28;20210;-88
2021/11/15 00:54:31;;;;;;;102.80;37.60;;;;;;;3.28;100.00;102074.06;5084378;28;20749;-82
2021/11/15 00:56:59;;;;;;;107.63;36.90;;;;;;;3.25;100.00;102076.56;5089353;28;20609;-87
2021/11/15 00:59:27;;;;;;;101.43;36.03;;;;;;;3.24;100.00;102067.97;5085302;28;20286;-86
2021/11/15 01:01:54;;;;;;;91.17;33.77;;;;;;;3.26;100.00;102073.16;5087566;28;20226;-84
2021/11/15 01:04:20;;;;;;;103.37;34.43;;;;;;;3.26;100.00;102066.28;5086451;28;20960;-86
2021/11/15 01:06:47;;;;;;;99.50;35.30;;;;;;;3.25;100.00;102064.53;5087909;28;20277;-84
2021/11/15 01:09:13;;;;;;;112.47;35.10;;;;;;;3.27;100.00;102067.16;5086225;28;20686;-83
2021/11/15 01:11:40;;;;;;;109.00;34.80;;;;;;;3.27;100.00;102069.75;5088078;28;20226;-84
2021/11/15 01:14:08;;;;;;;97.60;35.10;;;;;;;3.28;100.00;102067.22;5085884;28;20201;-85
2021/11/15 01:16:34;;;;;;;104.27;35.67;;;;;;;3.27;100.00;102057.72;5083817;28;20800;-86
2021/11/15 01:19:01;;;;;;;98.60;34.03;;;;;;;3.29;100.00;102063.81;5086062;28;20384;-85
2021/11/15 01:21:28;;;;;;;97.57;34.57;;;;;;;3.27;100.00;102065.44;5087086;28;20232;-84
2021/11/15 01:23:55;;;;;;;96.40;33.77;;;;;;;3.29;100.00;102068.06;5088055;28;20206;-83
2021/11/15 01:26:21;;;;;;;96.33;34.33;;;;;;;3.30;100.00;102081.00;5084270;28;20199;-85
2021/11/15 01:28:49;;;;;;;90.60;32.73;;;;;;;3.29;100.00;102074.13;5087227;28;20225;-85
2021/11/15 01:31:17;;;;;;;93.63;34.83;;;;;;;3.31;100.00;102081.91;5081780;28;20813;-82
2021/11/15 01:33:44;;;;;;;95.33;32.17;;;;;;;3.31;100.00;102074.16;5085921;28;20206;-86
2021/11/15 01:36:12;;;;;;;99.73;33.90;;;;;;;3.29;100.00;102075.81;5081570;28;20241;-86
2021/11/15 01:38:39;;;;;;;94.00;33.53;;;;;;;3.31;100.00;102076.75;5086742;28;20190;-82
2021/11/15 01:41:08;;;;;;;102.27;35.70;;;;;;;3.30;100.00;102081.00;5085535;28;20228;-83
2021/11/15 01:43:35;;;;;;;105.93;35.37;;;;;;;3.31;100.00;102077.59;5088716;28;20204;-84
2021/11/15 01:46:04;;;;;;;91.83;33.43;;;;;;;3.31;100.00;102075.03;5086589;28;20256;-87
2021/11/15 01:48:32;;;;;;;103.67;35.60;;;;;;;3.32;100.00;102078.47;5089184;28;20229;-86
2021/11/15 01:50:58;;;;;;;100.37;34.97;;;;;;;3.32;100.00;102073.31;5084483;28;20206;-86
2021/11/15 01:53:25;;;;;;;100.77;35.33;;;;;;;3.32;100.00;102068.16;5090856;28;20641;-83
2021/11/15 01:55:52;;;;;;;97.70;34.10;;;;;;;3.32;100.00;102069.03;5088381;28;20206;-84
2021/11/15 01:58:19;;;;;;;86.97;32.77;;;;;;;3.32;100.00;102068.16;5090394;28;20192;-84
2021/11/15 02:00:48;;;;;;;89.67;34.27;;;;;;;3.31;100.00;102067.28;5086918;28;20289;-85
2021/11/15 02:03:16;;;;;;;99.77;34.27;;;;;;;3.32;100.00;102068.16;5088991;28;20209;-85
2021/11/15 02:05:44;;;;;;;93.83;33.27;;;;;;;3.33;100.00;102062.19;5083774;28;20862;-83
2021/11/15 02:08:11;;;;;;;90.37;33.77;;;;;;;3.33;100.00;102064.75;5086952;28;20221;-89
2021/11/15 02:10:38;;;;;;;108.27;35.43;;;;;;;3.35;100.00;102073.41;5085235;28;20304;-83
2021/11/15 02:13:05;;;;;;;83.80;33.37;;;;;;;3.33;100.00;102072.50;5086547;28;20289;-82
2021/11/15 02:15:32;;;;;;;92.20;34.63;;;;;;;3.34;100.00;102071.66;5085859;28;20202;-84
2021/11/15 02:17:59;;;;;;;95.53;34.70;;;;;;;3.34;100.00;102076.81;5077353;28;20942;-84
2021/11/15 02:20:29;;;;;;;94.07;33.50;;;;;;;3.34;100.00;102066.50;5085580;28;20265;-87
2021/11/15 02:22:56;;;;;;;80.00;31.77;;;;;;;3.34;100.00;102071.66;5087537;28;20226;-85
2021/11/15 02:25:26;;;;;;;103.20;38.03;;;;;;;3.33;100.00;102063.03;5087550;28;20293;-86
2021/11/15 02:27:53;;;;;;;107.97;40.50;;;;;;;3.34;100.00;102069.06;5087618;28;20305;-85
2021/11/15 02:30:23;;;;;;;98.50;35.87;;;;;;;3.35;100.00;102074.28;5090426;28;20806;-84
2021/11/15 02:32:50;;;;;;;111.43;37.43;;;;;;;3.34;100.00;102074.22;5087522;28;20217;-87
2021/11/15 02:35:17;;;;;;;100.47;37.20;;;;;;;3.35;100.00;102065.66;5088059;28;20216;-83
2021/11/15 02:37:46;;;;;;;90.67;34.50;;;;;;;3.38;100.00;102073.50;5085508;28;20202;-85
2021/11/15 02:40:15;;;;;;;88.53;33.27;;;;;;;3.37;100.00;102075.19;5091896;28;20301;-83
2021/11/15 02:42:43;;;;;;;88.67;34.90;;;;;;;3.37;100.00;102070.03;5088322;28;20222;-86
2021/11/15 02:45:11;;;;;;;97.53;34.37;;;;;;;3.40;100.00;102066.66;5091456;28;20205;-83
2021/11/15 02:47:38;;;;;;;92.17;34.67;;;;;;;3.38;100.00;102071.78;5086742;28;20324;-86
2021/11/15 02:50:07;;;;;;;99.73;36.83;;;;;;;3.35;100.00;102063.97;5089450;28;20206;-83
2021/11/15 02:52:34;;;;;;;94.83;33.80;;;;;;;3.37;100.00;102071.72;5088994;28;20226;-84
2021/11/15 02:55:01;;;;;;;93.07;35.53;;;;;;;3.38;100.00;102070.91;5082737;28;20254;-83
2021/11/15 02:57:28;;;;;;;90.73;37.27;;;;;;;3.38;100.00;102076.06;5089008;28;20718;-84
2021/11/15 02:59:55;;;;;;;89.87;36.13;;;;;;;3.39;100.00;102078.69;5091192;28;20202;-86
2021/11/15 03:02:22;;;;;;;91.53;34.73;;;;;;;3.39;100.00;102065.81;5083777;28;20216;-87
2021/11/15 03:04:48;;;;;;;93.67;33.43;;;;;;;3.39;100.00;102070.06;5087923;28;20802;-82
2021/11/15 03:07:15;;;;;;;90.00;33.33;;;;;;;3.40;100.00;102067.53;5089656;28;20212;-85
2021/11/15 03:09:41;;;;;;;81.03;32.57;;;;;;;3.41;100.00;102070.97;5087549;28;20290;-84
2021/11/15 03:12:10;;;;;;;94.37;35.57;;;;;;;3.39;100.00;102073.53;5089195;28;20230;-84
2021/11/15 03:14:37;;;;;;;85.17;33.07;;;;;;;3.41;100.00;102071.88;5086403;28;20207;-88
2021/11/15 03:17:04;;;;;;;85.43;32.47;;;;;;;3.40;100.00;102075.25;5090443;28;20244;-83
2021/11/15 03:19:31;;;;;;;83.87;30.93;;;;;;;3.41;100.00;102068.41;5089489;28;20208;-83
2021/11/15 03:21:57;;;;;;;86.10;34.03;;;;;;;3.42;100.00;102067.56;5090049;28;20236;-87
2021/11/15 03:24:24;;;;;;;79.37;31.83;;;;;;;3.42;100.00;102065.84;5088893;28;20213;-85
2021/11/15 03:26:50;;;;;;;85.43;32.57;;;;;;;3.41;100.00;102069.28;5089814;28;20202;-82
2021/11/15 03:29:18;;;;;;;85.53;32.17;;;;;;;3.40;100.00;102070.09;5084582;28;20226;-84
2021/11/15 03:31:45;;;;;;;83.90;32.03;;;;;;;3.40;100.00;102066.66;5089725;28;20220;-83
2021/11/15 03:34:13;;;;;;;77.03;30.50;;;;;;;3.42;100.00;102071.03;5087123;28;20202;-85
2021/11/15 03:36:43;;;;;;;84.50;32.57;;;;;;;3.40;100.00;102071.81;5084469;28;20198;-85
2021/11/15 03:39:11;;;;;;;84.13;35.33;;;;;;;3.40;100.00;102077.84;5085089;28;20194;-86
2021/11/15 03:41:41;;;;;;;89.77;31.60;;;;;;;3.40;100.00;102070.09;5089546;28;20225;-84
2021/11/15 03:44:08;;;;;;;82.27;33.23;;;;;;;3.41;100.00;102077.03;5086247;28;20300;-85
2021/11/15 03:46:36;;;;;;;90.17;35.53;;;;;;;3.43;100.00;102074.50;5088701;28;20545;-84
2021/11/15 03:49:03;;;;;;;101.10;35.57;;;;;;;3.42;100.00;102077.88;5089117;28;20218;-84
2021/11/15 03:51:30;;;;;;;86.93;34.07;;;;;;;3.42;100.00;102078.75;5087256;28;20218;-84
2021/11/15 03:53:57;;;;;;;85.57;32.03;;;;;;;3.42;100.00;102072.72;5085037;28;20286;-84
2021/11/15 03:56:26;;;;;;;84.80;32.57;;;;;;;3.42;100.00;102073.59;5085180;28;20206;-83
2021/11/15 03:58:53;;;;;;;88.43;34.60;;;;;;;3.40;100.00;102070.09;5087737;28;20202;-84
2021/11/15 04:01:24;;;;;;;86.43;31.27;;;;;;;3.38;100.00;102060.59;5085652;28;20217;-82
2021/11/15 04:03:54;;;;;;;91.20;34.23;;;;;;;3.40;100.00;102066.66;5086983;28;20237;-85
2021/11/15 04:06:25;;;;;;;92.80;33.67;;;;;;;3.39;100.00;102063.22;5084429;28;20592;-83
2021/11/15 04:08:53;;;;;;;87.17;31.70;;;;;;;3.39;100.00;102070.06;5088325;28;20328;-85
2021/11/15 04:11:21;;;;;;;93.93;34.60;;;;;;;3.40;100.00;102057.22;5085124;28;20231;-83
2021/11/15 04:13:50;;;;;;;90.97;34.87;;;;;;;3.41;100.00;102063.25;5087876;28;20200;-83
2021/11/15 04:16:18;;;;;;;88.23;31.27;;;;;;;3.41;100.00;102065.81;5084617;28;20205;-83
2021/11/15 04:18:49;;;;;;;83.97;32.77;;;;;;;3.40;100.00;102069.25;5088421;28;20240;-85
2021/11/15 04:21:18;;;;;;;93.03;34.40;;;;;;;3.40;100.00;102066.66;5084184;28;20218;-83
2021/11/15 04:23:45;;;;;;;81.60;32.33;;;;;;;3.40;100.00;102066.66;5087140;28;20304;-87
2021/11/15 04:26:13;;;;;;;95.40;34.03;;;;;;;3.39;100.00;102060.66;5086783;28;20225;-82
2021/11/15 04:28:40;;;;;;;84.30;32.43;;;;;;;3.39;100.00;102062.34;5089350;28;20304;-85
2021/11/15 04:31:06;;;;;;;89.73;34.20;;;;;;;3.40;100.00;102064.09;5084439;28;20363;-83
2021/11/15 04:33:33;;;;;;;88.87;33.07;;;;;;;3.40;100.00;102059.78;5087772;28;20620;-84
2021/11/15 04:35:59;;;;;;;91.97;33.77;;;;;;;3.40;100.00;102061.50;5085402;28;20648;-84
2021/11/15 04:38:27;;;;;;;96.10;35.33;;;;;;;3.38;100.00;102058.88;5086219;28;20195;-83
2021/11/15 04:40:54;;;;;;;92.83;35.10;;;;;;;3.39;100.00;102055.50;5087524;28;20205;-85
2021/11/15 04:43:20;;;;;;;94.33;38.60;;;;;;;3.39;100.00;102058.06;5086079;28;20194;-87
2021/11/15 04:45:47;;;;;;;97.67;35.10;;;;;;;3.38;100.00;102061.47;5084657;28;20289;-84
2021/11/15 04:48:13;;;;;;;97.13;36.23;;;;;;;3.38;100.00;102055.44;5084894;28;20681;-88
2021/11/15 04:50:40;;;;;;;97.60;36.57;;;;;;;3.40;100.00;102061.50;5084364;28;20229;-82
2021/11/15 04:53:06;;;;;;;92.73;34.17;;;;;;;3.40;100.00;102066.66;5086165;28;20225;-82
2021/11/15 04:55:37;;;;;;;102.03;41.27;;;;;;;3.41;100.00;102058.09;5086344;28;20201;-86
2021/11/15 04:58:04;;;;;;;98.23;37.80;;;;;;;3.40;100.00;102058.94;5083846;28;20343;-82
2021/11/15 05:00:32;;;;;;;100.53;37.47;;;;;;;3.40;100.00;102058.94;5088024;28;20744;-88
2021/11/15 05:02:59;;;;;;;101.63;36.93;;;;;;;3.42;100.00;102065.00;5081610;28;20225;-82
2021/11/15 05:05:25;;;;;;;96.20;35.07;;;;;;;3.41;100.00;102050.34;5087282;28;20643;-86
2021/11/15 05:07:54;;;;;;;113.60;37.63;;;;;;;3.40;100.00;102057.22;5083347;28;20201;-84
2021/11/15 05:10:21;;;;;;;97.20;35.43;;;;;;;3.44;100.00;102045.28;5084818;28;20297;-83
2021/11/15 05:12:49;;;;;;;100.23;37.10;;;;;;;3.43;100.00;102053.88;5083850;28;21501;-84
2021/11/15 05:15:18;;;;;;;99.27;36.43;;;;;;;3.44;100.00;102044.41;5088036;28;20212;-85
2021/11/15 05:17:46;;;;;;;95.47;35.53;;;;;;;3.45;100.00;102048.72;5081824;28;20224;-81
2021/11/15 05:20:13;;;;;;;110.30;37.07;;;;;;;3.47;100.00;102054.81;5085132;28;20208;-82
2021/11/15 05:22:39;;;;;;;105.63;37.20;;;;;;;3.46;100.00;102053.91;5086763;28;20245;-84
2021/11/15 05:25:08;;;;;;;101.90;35.50;;;;;;;3.47;100.00;102050.53;5087743;28;20765;-85
2021/11/15 05:27:36;;;;;;;97.47;37.40;;;;;;;3.48;100.00;102049.66;5080352;28;20202;-83
2021/11/15 05:30:04;;;;;;;96.13;36.47;;;;;;;3.46;100.00;102048.75;5086056;28;20226;-85
2021/11/15 05:32:31;;;;;;;111.53;36.90;;;;;;;3.47;100.00;102058.25;5083267;28;20835;-86
2021/11/15 05:34:57;;;;;;;99.87;37.40;;;;;;;3.49;100.00;102061.75;5082137;28;20305;-85
2021/11/15 05:37:24;;;;;;;101.47;35.83;;;;;;;3.48;100.00;102056.53;5081077;28;20194;-84
2021/11/15 05:39:51;;;;;;;111.90;38.80;;;;;;;3.47;100.00;102054.81;5083223;28;20703;-86
2021/11/15 05:42:17;;;;;;;109.00;37.23;;;;;;;3.52;100.00;102053.22;5084226;28;20225;-83
2021/11/15 05:44:44;;;;;;;99.83;38.63;;;;;;;3.50;100.00;102050.59;5083204;28;20481;-83
2021/11/15 05:47:12;;;;;;;112.87;37.70;;;;;;;3.49;100.00;102047.97;5083813;28;20205;-86
2021/11/15 05:49:38;;;;;;;98.90;36.40;;;;;;;3.52;100.00;102050.66;5084406;28;20222;-82
2021/11/15 05:52:05;;;;;;;123.90;37.97;;;;;;;3.52;100.00;102058.38;5087377;28;20230;-85
2021/11/15 05:54:32;;;;;;;110.77;37.37;;;;;;;3.53;100.00;102062.69;5084852;28;20292;-84
2021/11/15 05:56:59;;;;;;;107.60;37.17;;;;;;;3.54;100.00;102061.88;5084269;28;20320;-86
2021/11/15 05:59:27;;;;;;;113.40;39.77;;;;;;;3.53;100.00;102066.13;5080248;28;20199;-85
2021/11/15 06:01:54;;;;;;;107.13;38.60;;;;;;;3.54;100.00;102059.28;5083603;28;20725;-82
2021/11/15 06:04:22;;;;;;;103.37;35.87;;;;;;;3.54;100.00;102067.91;5084146;28;20292;-86
2021/11/15 06:06:50;;;;;;;104.33;36.83;;;;;;;3.54;100.00;102067.91;5088976;28;20239;-86
2021/11/15 06:09:17;;;;;;;112.37;38.17;;;;;;;3.56;100.00;102071.38;5083775;28;20308;-83
2021/11/15 06:11:43;;;;;;;100.23;36.93;;;;;;;3.56;100.00;102065.34;5089996;28;20318;-83
2021/11/15 06:14:10;;;;;;;102.77;37.23;;;;;;;3.57;100.00;102057.66;5085431;28;20292;-84
2021/11/15 06:16:36;;;;;;;116.87;37.77;;;;;;;3.57;100.00;102062.81;5088905;28;20233;-82
2021/11/15 06:19:03;;;;;;;108.93;39.00;;;;;;;3.55;100.00;102068.75;5083927;28;20683;-82
2021/11/15 06:21:30;;;;;;;113.60;39.17;;;;;;;3.56;100.00;102076.53;5087154;28;20222;-85
2021/11/15 06:23:57;;;;;;;121.93;40.10;;;;;;;3.60;100.00;102072.34;5085910;28;20613;-83
2021/11/15 06:26:24;;;;;;;119.67;37.53;;;;;;;3.58;100.00;102069.72;5087121;28;20306;-85
2021/11/15 06:28:50;;;;;;;118.30;40.53;;;;;;;3.59;100.00;102070.59;5087598;28;20214;-84
2021/11/15 06:31:18;;;;;;;124.80;39.20;;;;;;;3.57;100.00;102067.97;5091110;28;20231;-85
2021/11/15 06:33:49;;;;;;;119.67;38.57;;;;;;;3.60;100.00;102078.34;5088608;28;20208;-82
2021/11/15 06:36:15;;;;;;;124.83;38.63;;;;;;;3.60;100.00;102075.78;5086093;28;20662;-84
2021/11/15 06:38:43;;;;;;;121.50;38.77;;;;;;;3.60;100.00;102085.22;5088084;28;20199;-82
2021/11/15 06:41:10;;;;;;;111.80;37.63;;;;;;;3.62;100.00;102080.97;5086785;28;20254;-83
2021/11/15 06:43:36;;;;;;;142.30;42.00;;;;;;;3.59;100.00;102084.38;5086460;28;20196;-85
2021/11/15 06:46:03;;;;;;;119.93;40.00;;;;;;;3.62;100.00;102078.41;5087247;28;20217;-85
2021/11/15 06:48:30;;;;;;;131.13;40.40;;;;;;;3.63;100.00;102084.44;5088665;28;20255;-88
2021/11/15 06:50:57;;;;;;;122.03;39.43;;;;;;;3.65;100.00;102095.69;5086381;28;20328;-86
2021/11/15 06:53:23;;;;;;;115.30;37.43;;;;;;;3.63;100.00;102087.91;5089219;28;20208;-83
2021/11/15 06:55:51;;;;;;;120.40;38.17;;;;;;;3.66;100.00;102090.56;5085118;28;20292;-84
2021/11/15 06:58:18;;;;;;;121.07;38.47;;;;;;;3.67;100.00;102094.00;5086893;28;20198;-83
2021/11/15 07:00:44;;;;;;;121.07;38.83;;;;;;;3.64;100.00;102087.06;5087724;28;20225;-83
2021/11/15 07:03:10;;;;;;;118.37;36.90;;;;;;;3.64;100.00;102092.22;5088799;28;20221;-83
2021/11/15 07:05:37;;;;;;;113.90;38.03;;;;;;;3.66;100.00;102089.66;5083429;28;20216;-83
2021/11/15 07:08:04;;;;;;;112.93;36.60;;;;;;;3.69;100.00;102097.50;5087670;28;20297;-84
2021/11/15 07:10:32;;;;;;;111.20;37.27;;;;;;;3.70;100.00;102088.94;5086230;28;20317;-83
2021/11/15 07:12:59;;;;;;;114.73;36.13;;;;;;;3.69;100.00;102088.03;5088147;28;20257;-83
2021/11/15 07:15:26;;;;;;;104.13;36.20;;;;;;;3.68;100.00;102088.88;5082988;28;20669;-82
2021/11/15 07:17:52;;;;;;;108.53;36.80;;;;;;;3.67;100.00;102094.00;5084657;28;20217;-87
2021/11/15 07:20:19;;;;;;;107.70;34.90;;;;;;;3.69;100.00;102094.91;5084301;28;20194;-84
2021/11/15 07:22:48;;;;;;;104.13;34.97;;;;;;;3.70;100.00;102094.09;5089226;28;20318;-83
2021/11/15 07:25:15;;;;;;;96.87;33.07;;;;;;;3.72;100.00;102089.84;5084587;28;20202;-84
2021/11/15 07:27:42;;;;;;;104.10;35.47;;;;;;;3.74;100.00;102094.19;5088034;28;20297;-84
2021/11/15 07:30:11;;;;;;;95.03;34.37;;;;;;;3.75;100.00;102097.66;5086138;28;20214;-84
2021/11/15 07:32:39;;;;;;;92.07;32.93;;;;;;;3.74;100.00;102089.03;5084079;28;20256;-84
2021/11/15 07:35:06;;;;;;;103.43;34.13;;;;;;;3.72;100.00;102082.97;5079335;28;20299;-82
2021/11/15 07:37:33;;;;;;;99.80;33.80;;;;;;;3.74;100.00;102091.59;5086941;28;20419;-83
2021/11/15 07:39:59;;;;;;;95.83;34.90;;;;;;;3.76;100.00;102083.91;5088480;28;20205;-83
2021/11/15 07:42:26;;;;;;;94.43;32.27;;;;;;;3.78;100.00;102088.28;5088855;28;20233;-82
2021/11/15 07:44:52;;;;;;;95.93;33.43;;;;;;;3.81;100.00;102089.19;5091807;28;20292;-85
2021/11/15 07:47:20;;;;;;;107.97;36.83;;;;;;;3.82;100.00;102091.81;5086897;28;20202;-89
2021/11/15 07:49:47;;;;;;;92.60;33.97;;;;;;;3.84;100.00;102087.56;5086977;28;20206;-85
2021/11/15 07:52:16;;;;;;;94.60;31.57;;;;;;;3.86;100.00;102093.63;5084320;28;20293;-83
2021/11/15 07:54:42;;;;;;;99.33;33.63;;;;;;;3.89;100.00;102087.69;5090512;28;20631;-84
2021/11/15 07:57:09;;;;;;;89.23;34.03;;;;;;;3.89;100.00;102083.41;5084897;28;20666;-83
2021/11/15 07:59:36;;;;;;;107.53;39.77;;;;;;;3.88;100.00;102084.22;5089333;28;20228;-83
2021/11/15 08:02:02;;;;;;;93.67;34.13;;;;;;;3.90;100.00;102086.84;5085144;28;20527;-83
2021/11/15 08:04:30;;;;;;;92.93;32.20;;;;;;;3.91;100.00;102080.84;5090067;28;20547;-85
2021/11/15 08:06:57;;;;;;;85.80;30.50;;;;;;;3.93;100.00;102084.34;5080932;28;20216;-83
2021/11/15 08:09:25;;;;;;;90.17;32.20;;;;;;;3.93;100.00;102090.38;5088750;28;20214;-86
2021/11/15 08:11:53;;;;;;;85.97;33.13;;;;;;;3.93;100.00;102084.34;5087241;28;20217;-83
2021/11/15 08:14:20;;;;;;;81.87;30.67;;;;;;;3.92;100.00;102087.75;5086396;28;20207;-87
2021/11/15 08:16:47;;;;;;;79.43;29.80;;;;;;;3.97;100.00;102088.72;5084768;28;20197;-83
2021/11/15 08:19:14;;;;;;;83.90;31.83;;;;;;;3.98;100.00;102086.19;5088555;28;20198;-83
2021/11/15 08:21:43;;;;;;;82.90;32.60;;;;;;;3.98;100.00;102085.34;5085316;28;20779;-84
2021/11/15 08:24:48;;;;;;;88.60;32.17;;;;;;;4.00;100.00;102093.97;5082387;28;20254;-84
2021/11/15 08:27:15;;;;;;;81.87;30.53;;;;;;;4.00;100.00;102096.56;5083021;28;20293;-83
2021/11/15 08:29:43;;;;;;;78.40;29.60;;;;;;;4.04;100.00;102092.34;5083613;28;20229;-82
2021/11/15 08:32:10;;;;;;;83.67;30.53;;;;;;;4.07;100.00;102092.44;5086100;28;20271;-83
2021/11/15 08:34:38;;;;;;;85.00;29.73;;;;;;;4.07;100.00;102092.44;5082321;28;20212;-85
2021/11/15 08:37:07;;;;;;;81.67;32.03;;;;;;;4.05;100.00;102097.53;5087730;28;20498;-83
2021/11/15 08:39:36;;;;;;;75.90;32.00;;;;;;;4.10;100.00;102095.09;5083728;28;20216;-86
2021/11/15 08:42:04;;;;;;;75.30;28.60;;;;;;;4.07;100.00;102097.59;5086789;28;20223;-84
2021/11/15 08:44:32;;;;;;;77.40;30.00;;;;;;;4.09;100.00;102089.03;5082295;28;20202;-85
2021/11/15 08:47:00;;;;;;;67.90;28.33;;;;;;;4.12;100.00;102090.84;5085593;28;20206;-85
2021/11/15 08:49:28;;;;;;;72.77;28.97;;;;;;;4.10;100.00;102095.94;5082557;28;20223;-83
2021/11/15 08:51:56;;;;;;;82.43;28.57;;;;;;;4.16;100.00;102082.31;5086828;28;20328;-83
2021/11/15 08:54:24;;;;;;;77.07;29.73;;;;;;;4.19;100.00;102082.38;5082847;28;20198;-84
2021/11/15 08:56:54;;;;;;;80.20;29.70;;;;;;;4.17;100.00;102081.50;5088152;28;20204;-83
2021/11/15 08:59:21;;;;;;;75.87;28.67;;;;;;;4.21;100.00;102077.28;5083497;28;20202;-83
2021/11/15 09:01:48;;;;;;;79.63;30.30;;;;;;;4.20;100.00;102076.38;5087061;28;20236;-86
2021/11/15 09:04:15;;;;;;;69.80;28.77;;;;;;;4.25;100.00;102077.34;5083541;28;20210;-83
2021/11/15 09:06:43;;;;;;;79.03;30.67;;;;;;;4.30;100.00;102082.63;5085140;28;20212;-85
2021/11/15 09:09:14;;;;;;;76.00;30.50;;;;;;;4.31;100.00;102084.34;5086876;28;20627;-83
2021/11/15 09:11:42;;;;;;;83.37;29.43;;;;;;;4.29;100.00;102089.53;5079501;28;20226;-84
2021/11/15 09:14:09;;;;;;;70.53;29.30;;;;;;;4.27;100.00;102090.31;5086809;28;20202;-88
2021/11/15 09:16:35;;;;;;;68.43;29.07;;;;;;;4.29;100.00;102094.69;5085168;28;20210;-83
2021/11/15 09:19:02;;;;;;;72.77;28.87;;;;;;;4.32;100.00;102096.44;5086622;28;20764;-84
2021/11/15 09:21:28;;;;;;;67.73;28.33;;;;;;;4.33;100.00;102099.06;5085156;28;20214;-85
2021/11/15 09:23:55;;;;;;;75.80;28.07;;;;;;;4.32;100.00;102097.31;5089064;28;20197;-84
2021/11/15 09:26:26;;;;;;;70.83;28.60;;;;;;;4.32;100.00;102099.91;5085128;28;20586;-84
2021/11/15 09:28:54;;;;;;;61.97;27.17;;;;;;;4.31;100.00;102089.53;5085937;28;20704;-84
2021/11/15 09:31:20;;;;;;;68.90;27.53;;;;;;;4.33;100.00;102099.06;5084680;28;20787;-85
2021/11/15 09:33:47;;;;;;;69.17;28.47;;;;;;;4.36;100.00;102088.81;5088112;28;20209;-82
2021/11/15 09:36:16;;;;;;;66.50;28.57;;;;;;;4.32;100.00;102093.88;5083787;28;20208;-82
2021/11/15 09:38:44;;;;;;;67.43;27.13;;;;;;;4.33;100.00;102093.03;5085280;28;20213;-81
2021/11/15 09:41:11;;;;;;;65.93;27.77;;;;;;;4.29;100.00;102092.09;5082106;28;20229;-83
2021/11/15 09:43:38;;;;;;;61.00;26.73;;;;;;;4.30;100.00;102092.97;5082827;28;20292;-84
2021/11/15 09:46:09;;;;;;;66.37;26.43;;;;;;;4.29;100.00;102093.78;5083153;28;20194;-83
2021/11/15 09:48:37;;;;;;;61.00;25.53;;;;;;;4.27;100.00;102090.31;5086329;28;20233;-87
2021/11/15 09:51:05;;;;;;;57.30;25.80;;;;;;;4.24;100.00;102093.69;5085276;28;20252;-83
2021/11/15 09:53:32;;;;;;;58.43;26.53;;;;;;;4.25;100.00;102087.69;5085063;28;20206;-84
2021/11/15 09:56:00;;;;;;;60.87;26.93;;;;;;;4.26;100.00;102084.28;5084006;28;20255;-86
2021/11/15 09:58:28;;;;;;;59.63;26.37;;;;;;;4.25;100.00;102087.69;5084557;28;20294;-82
2021/11/15 10:00:55;;;;;;;57.23;24.27;;;;;;;4.23;100.00;102085.91;5085626;28;20205;-82
2021/11/15 10:03:25;;;;;;;57.83;25.03;;;;;;;4.23;100.00;102083.34;5085381;28;20201;-82
2021/11/15 10:05:51;;;;;;;53.43;24.53;;;;;;;4.18;100.00;102085.78;5086492;28;20198;-82
2021/11/15 10:08:19;;;;;;;51.40;22.07;;;;;;;4.24;100.00;102090.22;5083709;28;20599;-84
2021/11/15 10:10:55;;;;;;;54.27;23.07;;;;;;;4.27;100.00;102086.00;5083655;28;20228;-83
2021/11/15 10:13:25;;;;;;;58.33;25.17;;;;;;;4.29;100.00;102091.22;5084272;28;20244;-83
2021/11/15 10:15:57;;;;;;;52.13;23.30;;;;;;;4.33;100.00;102087.88;5086082;28;20198;-85
2021/11/15 10:18:34;;;;;;;51.03;23.10;;;;;;;4.42;100.00;102082.06;5079742;28;20207;-83
2021/11/15 10:21:03;;;;;;;63.40;30.53;;;;;;;4.47;100.00;102076.16;5084335;28;20202;-84
2021/11/15 10:23:33;;;;;;;53.70;25.13;;;;;;;4.52;100.00;102073.63;5082583;28;20206;-82
2021/11/15 10:26:02;;;;;;;48.30;22.70;;;;;;;4.53;100.00;102078.84;5083206;28;20210;-83
2021/11/15 10:28:30;;;;;;;46.80;23.27;;;;;;;4.55;100.00;102072.00;5084263;28;20210;-82
2021/11/15 10:30:57;;;;;;;44.47;21.03;;;;;;;4.62;100.00;102066.97;5085017;28;20225;-83
2021/11/15 10:33:36;;;;;;;46.20;21.40;;;;;;;4.65;100.00;102062.75;5082340;28;20289;-84
2021/11/15 10:36:04;;;;;;;41.70;21.17;;;;;;;4.72;100.00;102063.75;5080259;28;20938;-86
2021/11/15 10:38:42;;;;;;;45.07;21.30;;;;;;;4.74;100.00;102056.91;5083576;28;20217;-84
2021/11/15 10:41:17;;;;;;;44.20;20.30;;;;;;;4.74;100.00;102056.91;5081705;28;20213;-83
2021/11/15 10:43:46;;;;;;;42.63;19.40;;;;;;;4.75;100.00;102058.66;5087108;28;20295;-82
2021/11/15 10:46:28;;;;;;;40.27;18.93;;;;;;;4.74;100.00;102060.34;5080973;28;20199;-85
2021/11/15 10:48:58;;;;;;;40.57;20.50;;;;;;;4.78;100.00;102063.00;5086377;28;20206;-85
2021/11/15 10:51:52;;;;;;;38.13;18.60;;;;;;;4.79;100.00;102062.19;5083818;28;20226;-83
2021/11/15 10:54:34;;;;;;;46.97;20.47;;;;;;;4.76;100.00;102070.72;5073004;28;20225;-82
2021/11/15 10:57:17;;;;;;;40.83;19.73;;;;;;;4.76;100.00;102067.28;5087232;28;20260;-82
2021/11/15 10:59:44;;;;;;;39.93;18.37;;;;;;;4.72;100.00;102069.78;5085479;28;20742;-82
2021/11/15 11:02:26;;;;;;;36.30;18.03;;;;;;;4.74;100.00;102062.06;5088518;28;20214;-82
2021/11/15 11:05:09;;;;;;;37.50;18.93;;;;;;;4.73;100.00;102068.97;5084769;28;20213;-84
2021/11/15 11:07:35;;;;;;;39.60;19.73;;;;;;;4.70;100.00;102068.88;5086488;28;20194;-83
2021/11/15 11:10:04;;;;;;;34.77;18.63;;;;;;;4.71;100.00;102065.47;5084256;28;20211;-83